• Join FlightAware (Why Join?)
  • Login
  • US Flag 
11:55PM EST


 

Airport Tracker/Info


-or-


 

Live Flight TrackerFlight Track Log ✈ EJA941 ✈ 11-Aug-2013 ✈ KMSP - KAPF

Flight Track Log - Related Links

Times and Time Zones

All times are in EDT time to prevent confusion due to time zone crossing. See the EJA941 flight status page for this flight to view local times or setup timezone preferences in your user account.

Time Position Orientation Groundspeed Altitude Reporting Facility
EDT Latitude Longitude Course Direction KTS MPH feet Rate Location/Type
12:17PM 44.8500 -93.2333 131° Southeast 186 214 1,800  Level Minneapolis TRACON
12:17PM 44.8303 -93.2017 131° Southeast 204 235 3,500 3,060 Climbing Minneapolis Center
12:18PM 44.7836 -93.1247 130° Southeast 266 306 6,700 3,420 Climbing Minneapolis Center
12:19PM 44.7281 -93.0333 131° Southeast 303 349 10,600 2,940 Climbing Minneapolis Center
12:21PM 44.6603 -92.9308 133° Southeast 362 417 12,800 1,860 Climbing Minneapolis Center
12:22PM 44.5864 -92.8183 133° Southeast 389 448 14,500 1,500 Climbing Minneapolis Center
12:23PM 44.5094 -92.7022 133° Southeast 405 466 15,900 1,260 Climbing Minneapolis Center
12:24PM 44.3975 -92.5347 133° Southeast 422 486 17,400 1,200 Climbing Minneapolis Center
12:25PM 44.3197 -92.4069 130° Southeast 430 495 18,700 1,080 Climbing Minneapolis Center
12:26PM 44.2586 -92.2581 120° Southeast 439 505 19,700 900 Climbing Minneapolis Center
12:27PM 44.2056 -92.1367 121° Southeast 452 520 20,600 1,140 Climbing Minneapolis Center
12:28PM 44.1250 -91.9542 122° Southeast 460 529 22,100 1,200 Climbing Minneapolis Center
12:29PM 44.0564 -91.7981 121° Southeast 470 541 23,200 1,080 Climbing Minneapolis Center
12:30PM 43.9875 -91.6422 122° Southeast 483 556 24,400 1,200 Climbing Minneapolis Center
12:31PM 43.9169 -91.4819 121° Southeast 487 560 25,700 1,200 Climbing Minneapolis Center
12:32PM 43.8067 -91.3192 133° Southeast 486 559 27,000 1,140 Climbing Minneapolis Center
12:33PM 43.7086 -91.1856 135° Southeast 492 566 28,100 960 Climbing Minneapolis Center
12:34PM 43.6128 -91.0486 134° Southeast 496 571 29,100 1,080 Climbing Minneapolis Center
12:35PM 43.4936 -90.8856 135° Southeast 503 579 30,400 1,200 Climbing Minneapolis Center
12:36PM 43.4064 -90.7331 128° Southeast 509 586 31,700 1,260 Climbing Minneapolis Center
12:37PM 43.3375 -90.5611 119° Southeast 516 594 33,100 1,440 Climbing Minneapolis Center
12:38PM 43.2689 -90.3892 119° Southeast 516 594 34,800 1,620 Climbing Minneapolis Center
12:39PM 43.1917 -90.1981 119° Southeast 513 590 36,500 1,260 Climbing Minneapolis Center
12:40PM 43.1219 -90.0250 119° Southeast 517 595 37,500 1,020 Climbing Minneapolis Center
12:42PM 42.9850 -89.8483 137° Southeast 512 589 39,000 600 Climbing Chicago Center
12:43PM 42.8456 -89.8167 171° South 508 585 39,000  Level Chicago Center
12:44PM 42.6761 -89.7858 172° South 526 605 39,000  Level Chicago Center
12:45PM 42.5306 -89.7600 173° South 528 608 39,000  Level Chicago Center
12:46PM 42.3864 -89.7336 172° South 525 604 39,000 60 Level Chicago Center
12:47PM 42.2439 -89.7075 172° South 518 596 39,200 540 Climbing Chicago Center
12:48PM 42.1031 -89.6831 173° South 512 589 40,200 840 Climbing Chicago Center
12:49PM 41.9425 -89.6550 173° South 505 581 41,000 360 Climbing Chicago Center
12:50PM 41.8031 -89.6333 173° South 508 585 41,000  Level Chicago Center
12:51PM 41.6511 -89.6233 177° South 510 587 41,000  Level Chicago Center
12:52PM 41.5089 -89.6114 176° South 510 587 41,000  Level Chicago Center
12:53PM 41.3672 -89.6003 177° South 509 586 41,000  Level Chicago Center
12:54PM 41.2250 -89.5869 176° South 510 587 41,000  Level Chicago Center
12:55PM 41.0833 -89.5753 176° South 508 585 41,000  Level Chicago Center
12:56PM 40.9328 -89.5589 175° South 509 586 41,000  Level Chicago Center
12:57PM 40.7969 -89.4958 161° South 536 617 41,000  Level Chicago Center
12:58PM 40.6561 -89.4131 156° South 544 626 41,000  Level Chicago Center
12:59PM 40.4878 -89.3175 157° South 544 626 41,000  Level Chicago Center
01:00PM 40.3508 -89.2369 156° South 538 619 41,000  Level Chicago Center
01:01PM 40.2133 -89.1614 157° South 533 613 41,000  Level Chicago Center
01:02PM 40.0758 -89.0831 156° South 536 617 41,000  Level Chicago Center
01:03PM 39.9392 -89.0056 156° South 533 613 41,000  Level Chicago Center
01:05PM 39.7758 -88.9144 157° South 532 612 41,000  Level Chicago Center
01:06PM 39.6456 -88.8436 157° South 532 612 41,000  Level Indianapolis Center
01:07PM 39.4978 -88.7608 157° South 527 606 41,000  Level Indianapolis Center
01:08PM 39.3642 -88.6861 157° South 524 603 41,000  Level Indianapolis Center
01:09PM 39.2308 -88.6125 157° South 521 600 41,000  Level Indianapolis Center
01:10PM 39.0975 -88.5392 157° South 518 596 41,000  Level Indianapolis Center
01:11PM 38.9642 -88.4664 157° South 519 597 41,000  Level Indianapolis Center
01:12PM 38.8308 -88.3936 157° South 520 598 41,000  Level Indianapolis Center
01:13PM 38.6972 -88.3217 157° South 520 598 41,000  Level Indianapolis Center
01:14PM 38.5389 -88.2350 157° South 517 595 41,000  Level Indianapolis Center
01:15PM 38.4056 -88.1633 157° South 518 596 41,000  Level Indianapolis Center
01:16PM 38.2728 -88.0925 157° South 518 596 41,000  Level Indianapolis Center
01:17PM 38.1400 -88.0214 157° South 518 596 41,000  Level Indianapolis Center
01:18PM 38.0083 -87.9519 157° South 515 593 41,000  Level Indianapolis Center
01:19PM 37.8764 -87.8822 157° South 515 593 41,000 300 Level Indianapolis Center
01:20PM 37.7306 -87.8050 157° South 510 587 41,700 780 Climbing Indianapolis Center
01:21PM 37.6011 -87.7361 157° South 503 579 42,700 600 Climbing Indianapolis Center
01:22PM 37.4722 -87.6722 159° South 496 571 43,000 120 Climbing Indianapolis Center
01:23PM 37.3419 -87.6022 157° South 504 580 43,000  Level Indianapolis Center
01:24PM 37.2078 -87.5339 158° South 514 592 43,000  Level Indianapolis Center
01:25PM 37.0942 -87.4756 158° South 509 586 43,000  Level Memphis Center
01:26PM 36.9633 -87.4075 157° South 509 586 43,000  Level Memphis Center
01:27PM 36.8325 -87.3397 157° South 509 586 43,000  Level Memphis Center
01:28PM 36.7039 -87.2747 158° South 509 586 43,000  Level Memphis Center
01:29PM 36.5731 -87.2100 158° South 503 579 43,000  Level Memphis Center
01:30PM 36.4400 -87.1428 158° South 498 573 43,000  Level Memphis Center
01:31PM 36.3072 -87.0864 161° South 503 579 43,000  Level Memphis Center
01:32PM 36.1697 -87.0147 157° South 524 603 43,000  Level Memphis Center
01:33PM 36.0406 -86.9431 156° South 519 597 43,000  Level Memphis Center
01:34PM 35.9097 -86.8792 158° South 507 583 43,000  Level Memphis Center
01:35PM 35.7806 -86.8131 157° South 507 583 43,000  Level Memphis Center
01:37PM 35.5106 -86.6794 158° South 507 583 43,000  Level Atlanta Center
01:38PM 35.3722 -86.6061 157° South 507 583 43,000  Level Atlanta Center
01:39PM 35.2400 -86.5436 159° South 502 578 43,000  Level Atlanta Center
01:40PM 35.1100 -86.4761 157° South 507 583 43,000  Level Atlanta Center
01:41PM 34.9819 -86.4142 158° South 502 578 43,000  Level Atlanta Center
01:42PM 34.8536 -86.3497 158° South 502 578 43,000  Level Atlanta Center
01:43PM 34.7211 -86.2881 159° South 502 578 43,000  Level Atlanta Center
01:44PM 34.5908 -86.2239 158° South 507 583 43,000  Level Atlanta Center
01:45PM 34.4625 -86.1625 158° South 507 583 43,000  Level Atlanta Center
01:46PM 34.3322 -86.0989 158° South 507 583 43,000  Level Atlanta Center
01:47PM 34.2017 -86.0381 159° South 507 583 43,000  Level Atlanta Center
01:48PM 34.0733 -85.9750 158° South 507 583 43,000  Level Atlanta Center
01:49PM 33.9408 -85.9142 159° South 507 583 43,000  Level Atlanta Center
01:50PM 33.8103 -85.8514 158° South 507 583 43,000  Level Atlanta Center
01:51PM 33.6836 -85.7964 160° South 507 583 43,000  Level Atlanta Center
01:52PM 33.5550 -85.7389 160° South 494 568 43,000  Level Atlanta Center
01:53PM 33.4264 -85.6767 158° South 499 574 43,000  Level Atlanta Center
01:54PM 33.2958 -85.6094 157° South 506 582 43,000  Level Atlanta Center
01:55PM 33.1692 -85.5503 159° South 501 577 43,000  Level Atlanta Center
01:56PM 33.0383 -85.4908 159° South 501 577 43,000  Level Atlanta Center
01:57PM 32.9097 -85.4294 158° South 501 577 43,000  Level Atlanta Center
01:58PM 32.7769 -85.3681 159° South 508 585 43,000  Level Atlanta Center
01:59PM 32.6542 -85.3119 159° South 502 578 43,000  Level Atlanta Center
02:00PM 32.5233 -85.2533 159° South 502 578 43,000  Level Atlanta Center
02:01PM 32.3967 -85.1950 159° South 502 578 43,000  Level Atlanta Center
02:02PM 32.2656 -85.1369 159° South 507 583 43,000  Level Atlanta Center
02:05PM 31.8719 -84.9597 159° South 486 559 43,000  Level Jacksonville Center
02:06PM 31.7436 -84.9031 159° South 481 554 43,000  Level Jacksonville Center
02:07PM 31.6128 -84.8467 160° South 486 559 43,000  Level Jacksonville Center
02:08PM 31.4842 -84.7878 159° South 486 559 43,000  Level Jacksonville Center
02:09PM 31.3578 -84.7319 159° South 486 559 43,000  Level Jacksonville Center
02:10PM 31.2292 -84.6758 160° South 481 554 43,000  Level Jacksonville Center
02:11PM 31.1025 -84.6153 158° South 486 559 43,000  Level Jacksonville Center
02:12PM 30.9739 -84.5594 160° South 486 559 43,000  Level Jacksonville Center
02:13PM 30.8575 -84.5067 159° South 491 565 43,000  Level Jacksonville Center
02:14PM 30.7308 -84.4489 159° South 491 565 43,000  Level Jacksonville Center
02:15PM 30.6064 -84.3914 158° South 485 558 43,000  Level Jacksonville Center
02:16PM 30.4672 -84.3289 159° South 485 558 43,000  Level Jacksonville Center
02:17PM 30.3383 -84.2717 159° South 485 558 43,000  Level Jacksonville Center
02:18PM 30.2158 -84.2147 158° South 485 558 43,000  Level Jacksonville Center
02:19PM 30.0889 -84.1600 160° South 485 558 43,000  Level Jacksonville Center
02:20PM 29.9644 -84.1033 158° South 485 558 43,000  Level Jacksonville Center
02:21PM 29.8333 -84.0442 159° South 490 564 43,000  Level Jacksonville Center
02:22PM 29.7064 -83.9900 160° South 490 564 43,000  Level Jacksonville Center
02:23PM 29.5775 -83.9336 159° South 490 564 43,000  Level Jacksonville Center
02:24PM 29.4486 -83.8775 159° South 484 557 43,000  Level Jacksonville Center
02:25PM 29.3236 -83.8192 158° South 490 564 43,000  Level Jacksonville Center
02:26PM 29.1967 -83.7656 160° South 490 564 43,000  Level Jacksonville Center
02:27PM 29.0678 -83.7097 159° South 485 558 43,000  Level Jacksonville Center
02:28PM 28.9386 -83.6517 159° South 490 564 43,000 -660 Level Jacksonville Center
02:29PM 28.8136 -83.5964 159° South 485 558 41,700 -1,680 Descending Jacksonville Center
02:30PM 28.6908 -83.5458 160° South 480 552 39,700 -2,040 Descending Jacksonville Center
02:32PM 28.4050 -83.4211 159° South 496 571 35,000 -1,440 Descending Miami Center
02:33PM 28.2592 -83.3700 163° South 496 571 35,000 -60 Level Miami Center
02:34PM 28.1156 -83.3689 180° South 502 578 34,900 -840 Descending Miami Center
02:35PM 27.9736 -83.3700 180° South 508 585 33,400 -1,680 Descending Miami Center
02:36PM 27.8300 -83.3664 179° South 513 590 31,600 -1,800 Descending Miami Center
02:37PM 27.6903 -83.3631 179° South 513 590 29,800 -1,860 Descending Miami Center
02:38PM 27.5592 -83.3581 178° South 524 603 27,900 -1,800 Descending Miami Center
02:39PM 27.4342 -83.3089 161° South 497 572 26,200 -1,740 Descending Miami Center
02:40PM 27.3425 -83.2081 136° Southeast 467 537 24,500 -1,800 Descending Miami Center
02:41PM 27.2494 -83.0978 133° Southeast 465 535 22,700 -1,800 Descending Miami Center
02:42PM 27.1619 -82.9953 134° Southeast 466 536 21,000 -1,680 Descending Miami Center
02:43PM 27.0747 -82.8881 132° Southeast 466 536 19,400 -1,620 Descending Miami Center
02:44PM 26.9889 -82.7906 135° Southeast 454 522 17,800 -1,620 Descending Miami Center
02:45PM 26.9053 -82.6908 133° Southeast 441 507 16,200 -1,620 Descending Miami Center
02:46PM 26.8256 -82.5961 133° Southeast 428 493 14,600 -1,680 Descending Miami Center
02:47PM 26.7358 -82.4917 134° Southeast 416 479 12,900 -1,500 Descending Miami Center
02:48PM 26.6658 -82.4094 134° Southeast 391 450 11,600 -1,380 Descending Miami Center
02:49PM 26.5994 -82.3483 141° Southeast 331 381 10,200 -1,560 Descending Miami Center
02:50PM 26.5325 -82.2986 146° Southeast 301 346 8,500 -1,740 Descending Miami Center
02:51PM 26.4653 -82.2514 148° Southeast 285 328 6,800 -1,740 Descending Miami Center
02:52PM 26.4044 -82.2047 146° Southeast 280 322 5,100 -900 Descending Miami Center
02:53PM 26.3414 -82.1600 148° Southeast 275 316 5,000 -60 Descending Miami Center
02:54PM 26.2869 -82.1067 139° Southeast 269 310 5,000 -480 Level Miami Center
02:55PM 26.2403 -82.0631 140° Southeast 256 295 4,100 -900 Descending Miami Center
02:57PM 26.1015 -81.9788 149° Southeast  Level FlightAware Approximate
03:04PM 26.1500 -81.7667 66° East  Level FlightAware Approximate
03:05PM 26.1524 -81.7756 66° East  Level Estimated
03:06PM 26.1524 -81.7756 66° East  Level Estimated
03:07PM 26.1524 -81.7756 66° East  Level Estimated
03:08PM 26.1524 -81.7756 66° East  Level Estimated
03:09PM 26.1524 -81.7756 66° East  Level Estimated
03:10PM 26.1524 -81.7756 66° East  Level Estimated